sensor_id;sensor_type;location;lat;lon;timestamp;P1;durP1;ratioP1;P2;durP2;ratioP2
8978;SDS011;4524;51.364;5.448;2023-01-06T00:01:34;5.53;;;3.13;;
8978;SDS011;4524;51.364;5.448;2023-01-06T00:04:02;6.80;;;3.07;;
8978;SDS011;4524;51.364;5.448;2023-01-06T00:06:32;3.47;;;3.10;;
8978;SDS011;4524;51.364;5.448;2023-01-06T00:09:01;5.07;;;3.00;;
8978;SDS011;4524;51.364;5.448;2023-01-06T00:11:30;5.47;;;2.77;;
8978;SDS011;4524;51.364;5.448;2023-01-06T00:13:58;5.80;;;2.50;;
8978;SDS011;4524;51.364;5.448;2023-01-06T00:16:27;4.03;;;2.60;;
8978;SDS011;4524;51.364;5.448;2023-01-06T00:18:55;5.57;;;2.47;;
8978;SDS011;4524;51.364;5.448;2023-01-06T00:21:24;5.83;;;2.77;;
8978;SDS011;4524;51.364;5.448;2023-01-06T00:23:54;3.97;;;2.13;;
8978;SDS011;4524;51.364;5.448;2023-01-06T00:26:22;7.53;;;2.70;;
8978;SDS011;4524;51.364;5.448;2023-01-06T00:28:51;3.77;;;2.30;;
8978;SDS011;4524;51.364;5.448;2023-01-06T00:31:19;3.03;;;2.27;;
8978;SDS011;4524;51.364;5.448;2023-01-06T00:33:48;4.70;;;2.43;;
8978;SDS011;4524;51.364;5.448;2023-01-06T00:36:16;5.03;;;2.10;;
8978;SDS011;4524;51.364;5.448;2023-01-06T00:38:44;5.20;;;2.30;;
8978;SDS011;4524;51.364;5.448;2023-01-06T00:41:13;2.23;;;1.77;;
8978;SDS011;4524;51.364;5.448;2023-01-06T00:44:00;4.37;;;2.00;;
8978;SDS011;4524;51.364;5.448;2023-01-06T00:46:29;2.90;;;1.97;;
8978;SDS011;4524;51.364;5.448;2023-01-06T00:48:59;3.97;;;2.27;;
8978;SDS011;4524;51.364;5.448;2023-01-06T00:51:32;5.67;;;2.27;;
8978;SDS011;4524;51.364;5.448;2023-01-06T00:54:01;5.57;;;2.10;;
8978;SDS011;4524;51.364;5.448;2023-01-06T00:56:31;3.70;;;2.00;;
8978;SDS011;4524;51.364;5.448;2023-01-06T00:59:01;4.47;;;1.90;;
8978;SDS011;4524;51.364;5.448;2023-01-06T01:01:30;6.03;;;2.00;;
8978;SDS011;4524;51.364;5.448;2023-01-06T01:03:58;4.00;;;1.70;;
8978;SDS011;4524;51.364;5.448;2023-01-06T01:06:26;4.43;;;1.80;;
8978;SDS011;4524;51.364;5.448;2023-01-06T01:08:55;2.57;;;1.50;;
8978;SDS011;4524;51.364;5.448;2023-01-06T01:11:24;4.47;;;2.07;;
8978;SDS011;4524;51.364;5.448;2023-01-06T01:14:14;3.17;;;1.70;;
8978;SDS011;4524;51.364;5.448;2023-01-06T01:16:43;5.20;;;1.77;;
8978;SDS011;4524;51.364;5.448;2023-01-06T01:19:12;3.33;;;1.57;;
8978;SDS011;4524;51.364;5.448;2023-01-06T01:21:40;4.83;;;1.63;;
8978;SDS011;4524;51.364;5.448;2023-01-06T01:24:08;3.10;;;1.67;;
8978;SDS011;4524;51.364;5.448;2023-01-06T01:26:36;4.20;;;1.80;;
8978;SDS011;4524;51.364;5.448;2023-01-06T01:29:05;4.73;;;1.90;;
8978;SDS011;4524;51.364;5.448;2023-01-06T01:31:34;3.50;;;1.90;;
8978;SDS011;4524;51.364;5.448;2023-01-06T01:34:02;3.10;;;1.67;;
8978;SDS011;4524;51.364;5.448;2023-01-06T01:36:30;3.87;;;2.10;;
8978;SDS011;4524;51.364;5.448;2023-01-06T01:38:58;2.93;;;2.00;;
8978;SDS011;4524;51.364;5.448;2023-01-06T01:41:27;6.87;;;2.03;;
8978;SDS011;4524;51.364;5.448;2023-01-06T01:43:56;2.80;;;1.70;;
8978;SDS011;4524;51.364;5.448;2023-01-06T01:46:27;4.67;;;1.80;;
8978;SDS011;4524;51.364;5.448;2023-01-06T01:49:00;4.10;;;1.93;;
8978;SDS011;4524;51.364;5.448;2023-01-06T01:51:32;4.10;;;1.90;;
8978;SDS011;4524;51.364;5.448;2023-01-06T01:54:04;4.67;;;2.23;;
8978;SDS011;4524;51.364;5.448;2023-01-06T01:56:36;4.97;;;2.37;;
8978;SDS011;4524;51.364;5.448;2023-01-06T01:59:08;4.27;;;2.20;;
8978;SDS011;4524;51.364;5.448;2023-01-06T02:01:38;7.43;;;2.20;;
8978;SDS011;4524;51.364;5.448;2023-01-06T02:04:08;3.97;;;1.87;;
8978;SDS011;4524;51.364;5.448;2023-01-06T02:06:37;5.20;;;2.10;;
8978;SDS011;4524;51.364;5.448;2023-01-06T02:09:09;7.53;;;2.20;;
8978;SDS011;4524;51.364;5.448;2023-01-06T02:11:42;4.20;;;1.77;;
8978;SDS011;4524;51.364;5.448;2023-01-06T02:14:13;5.60;;;1.70;;
8978;SDS011;4524;51.364;5.448;2023-01-06T02:16:48;3.20;;;1.40;;
8978;SDS011;4524;51.364;5.448;2023-01-06T02:19:33;2.47;;;1.50;;
8978;SDS011;4524;51.364;5.448;2023-01-06T02:22:24;2.27;;;1.53;;
8978;SDS011;4524;51.364;5.448;2023-01-06T02:25:27;5.57;;;1.70;;
8978;SDS011;4524;51.364;5.448;2023-01-06T02:31:38;3.37;;;1.63;;
8978;SDS011;4524;51.364;5.448;2023-01-06T02:34:32;4.20;;;1.60;;
8978;SDS011;4524;51.364;5.448;2023-01-06T02:37:13;2.47;;;1.40;;
8978;SDS011;4524;51.364;5.448;2023-01-06T02:39:49;3.53;;;1.50;;
8978;SDS011;4524;51.364;5.448;2023-01-06T02:42:31;4.07;;;1.60;;
8978;SDS011;4524;51.364;5.448;2023-01-06T02:45:07;3.23;;;1.40;;
8978;SDS011;4524;51.364;5.448;2023-01-06T02:47:48;2.77;;;1.33;;
8978;SDS011;4524;51.364;5.448;2023-01-06T02:50:25;4.47;;;1.40;;
8978;SDS011;4524;51.364;5.448;2023-01-06T02:53:04;2.83;;;1.53;;
8978;SDS011;4524;51.364;5.448;2023-01-06T02:55:38;2.40;;;1.37;;
8978;SDS011;4524;51.364;5.448;2023-01-06T02:58:11;4.17;;;1.50;;
8978;SDS011;4524;51.364;5.448;2023-01-06T03:00:46;4.00;;;1.57;;
8978;SDS011;4524;51.364;5.448;2023-01-06T03:03:21;4.73;;;1.60;;
8978;SDS011;4524;51.364;5.448;2023-01-06T03:05:57;4.10;;;1.40;;
8978;SDS011;4524;51.364;5.448;2023-01-06T03:08:31;3.57;;;1.33;;
8978;SDS011;4524;51.364;5.448;2023-01-06T03:11:01;3.13;;;1.40;;
8978;SDS011;4524;51.364;5.448;2023-01-06T03:13:34;2.20;;;1.57;;
8978;SDS011;4524;51.364;5.448;2023-01-06T03:16:06;3.17;;;1.40;;
8978;SDS011;4524;51.364;5.448;2023-01-06T03:18:36;4.07;;;1.50;;
8978;SDS011;4524;51.364;5.448;2023-01-06T03:21:07;2.50;;;1.30;;
8978;SDS011;4524;51.364;5.448;2023-01-06T03:23:39;4.80;;;1.50;;
8978;SDS011;4524;51.364;5.448;2023-01-06T03:26:09;4.23;;;1.40;;
8978;SDS011;4524;51.364;5.448;2023-01-06T03:28:37;2.80;;;1.47;;
8978;SDS011;4524;51.364;5.448;2023-01-06T03:31:08;3.63;;;1.60;;
8978;SDS011;4524;51.364;5.448;2023-01-06T03:33:46;2.53;;;1.40;;
8978;SDS011;4524;51.364;5.448;2023-01-06T03:36:22;3.60;;;1.73;;
8978;SDS011;4524;51.364;5.448;2023-01-06T03:38:58;3.97;;;1.40;;
8978;SDS011;4524;51.364;5.448;2023-01-06T03:41:35;5.20;;;1.60;;
8978;SDS011;4524;51.364;5.448;2023-01-06T03:44:28;4.67;;;1.60;;
8978;SDS011;4524;51.364;5.448;2023-01-06T03:47:03;2.70;;;1.70;;
8978;SDS011;4524;51.364;5.448;2023-01-06T03:49:38;3.90;;;1.40;;
8978;SDS011;4524;51.364;5.448;2023-01-06T03:52:14;5.03;;;1.50;;
8978;SDS011;4524;51.364;5.448;2023-01-06T03:54:50;3.30;;;1.57;;
8978;SDS011;4524;51.364;5.448;2023-01-06T03:57:24;3.90;;;1.50;;
8978;SDS011;4524;51.364;5.448;2023-01-06T03:59:57;3.10;;;1.30;;
8978;SDS011;4524;51.364;5.448;2023-01-06T04:02:38;6.90;;;1.60;;
8978;SDS011;4524;51.364;5.448;2023-01-06T04:05:15;4.07;;;1.50;;
8978;SDS011;4524;51.364;5.448;2023-01-06T04:07:46;4.07;;;1.87;;
8978;SDS011;4524;51.364;5.448;2023-01-06T04:10:16;2.40;;;1.43;;
8978;SDS011;4524;51.364;5.448;2023-01-06T04:12:47;4.23;;;1.50;;
8978;SDS011;4524;51.364;5.448;2023-01-06T04:15:19;3.33;;;1.63;;
8978;SDS011;4524;51.364;5.448;2023-01-06T04:17:50;4.53;;;1.80;;
8978;SDS011;4524;51.364;5.448;2023-01-06T04:20:21;3.27;;;1.70;;
8978;SDS011;4524;51.364;5.448;2023-01-06T04:22:55;4.30;;;1.30;;
8978;SDS011;4524;51.364;5.448;2023-01-06T04:25:25;3.00;;;1.30;;
8978;SDS011;4524;51.364;5.448;2023-01-06T04:27:53;2.63;;;1.43;;
8978;SDS011;4524;51.364;5.448;2023-01-06T04:30:22;2.67;;;1.07;;
8978;SDS011;4524;51.364;5.448;2023-01-06T04:32:50;3.23;;;1.40;;
8978;SDS011;4524;51.364;5.448;2023-01-06T04:35:18;3.30;;;1.40;;
8978;SDS011;4524;51.364;5.448;2023-01-06T04:37:48;3.17;;;1.20;;
8978;SDS011;4524;51.364;5.448;2023-01-06T04:40:16;2.43;;;1.20;;
8978;SDS011;4524;51.364;5.448;2023-01-06T04:42:44;1.90;;;1.20;;
8978;SDS011;4524;51.364;5.448;2023-01-06T04:45:29;2.57;;;1.20;;
8978;SDS011;4524;51.364;5.448;2023-01-06T04:47:57;2.33;;;1.37;;
8978;SDS011;4524;51.364;5.448;2023-01-06T04:50:27;1.80;;;1.03;;
8978;SDS011;4524;51.364;5.448;2023-01-06T04:52:55;3.90;;;1.30;;
8978;SDS011;4524;51.364;5.448;2023-01-06T04:55:23;3.93;;;1.73;;
8978;SDS011;4524;51.364;5.448;2023-01-06T04:57:51;4.00;;;1.10;;
8978;SDS011;4524;51.364;5.448;2023-01-06T05:00:19;2.53;;;1.00;;
8978;SDS011;4524;51.364;5.448;2023-01-06T05:02:48;3.37;;;1.50;;
8978;SDS011;4524;51.364;5.448;2023-01-06T05:05:17;3.30;;;1.73;;
8978;SDS011;4524;51.364;5.448;2023-01-06T05:07:46;2.17;;;1.47;;
8978;SDS011;4524;51.364;5.448;2023-01-06T05:10:14;1.63;;;1.27;;
8978;SDS011;4524;51.364;5.448;2023-01-06T05:12:42;1.90;;;1.10;;
8978;SDS011;4524;51.364;5.448;2023-01-06T05:15:10;2.70;;;1.13;;
8978;SDS011;4524;51.364;5.448;2023-01-06T05:17:38;2.30;;;1.40;;
8978;SDS011;4524;51.364;5.448;2023-01-06T05:20:07;2.97;;;1.27;;
8978;SDS011;4524;51.364;5.448;2023-01-06T05:22:35;4.03;;;1.40;;
8978;SDS011;4524;51.364;5.448;2023-01-06T05:25:05;2.70;;;1.30;;
8978;SDS011;4524;51.364;5.448;2023-01-06T05:27:34;1.60;;;1.20;;
8978;SDS011;4524;51.364;5.448;2023-01-06T05:30:02;5.37;;;1.53;;
8978;SDS011;4524;51.364;5.448;2023-01-06T05:32:30;3.43;;;1.70;;
8978;SDS011;4524;51.364;5.448;2023-01-06T05:34:58;1.63;;;1.30;;
8978;SDS011;4524;51.364;5.448;2023-01-06T05:37:26;3.30;;;1.40;;
8978;SDS011;4524;51.364;5.448;2023-01-06T05:39:54;4.33;;;1.50;;
8978;SDS011;4524;51.364;5.448;2023-01-06T05:42:23;4.77;;;1.33;;
8978;SDS011;4524;51.364;5.448;2023-01-06T05:44:51;5.10;;;1.27;;
8978;SDS011;4524;51.364;5.448;2023-01-06T05:47:19;2.63;;;1.30;;
8978;SDS011;4524;51.364;5.448;2023-01-06T05:49:47;3.23;;;1.40;;
8978;SDS011;4524;51.364;5.448;2023-01-06T05:52:15;2.67;;;1.30;;
8978;SDS011;4524;51.364;5.448;2023-01-06T05:54:43;2.03;;;1.30;;
8978;SDS011;4524;51.364;5.448;2023-01-06T05:57:12;1.47;;;1.20;;
8978;SDS011;4524;51.364;5.448;2023-01-06T05:59:41;2.93;;;1.43;;
8978;SDS011;4524;51.364;5.448;2023-01-06T06:02:09;2.83;;;1.33;;
8978;SDS011;4524;51.364;5.448;2023-01-06T06:04:37;2.40;;;1.47;;
8978;SDS011;4524;51.364;5.448;2023-01-06T06:07:05;2.83;;;1.70;;
8978;SDS011;4524;51.364;5.448;2023-01-06T06:09:32;2.00;;;1.40;;
8978;SDS011;4524;51.364;5.448;2023-01-06T06:12:00;3.50;;;1.70;;
8978;SDS011;4524;51.364;5.448;2023-01-06T06:14:28;2.73;;;1.30;;
8978;SDS011;4524;51.364;5.448;2023-01-06T06:16:58;2.73;;;1.37;;
8978;SDS011;4524;51.364;5.448;2023-01-06T06:19:26;2.97;;;1.60;;
8978;SDS011;4524;51.364;5.448;2023-01-06T06:21:54;1.80;;;1.33;;
8978;SDS011;4524;51.364;5.448;2023-01-06T06:24:22;1.97;;;1.50;;
8978;SDS011;4524;51.364;5.448;2023-01-06T06:26:49;3.53;;;1.50;;
8978;SDS011;4524;51.364;5.448;2023-01-06T06:29:17;2.67;;;1.80;;
8978;SDS011;4524;51.364;5.448;2023-01-06T06:31:45;3.40;;;1.60;;
8978;SDS011;4524;51.364;5.448;2023-01-06T06:34:15;3.47;;;1.40;;
8978;SDS011;4524;51.364;5.448;2023-01-06T06:36:43;2.47;;;1.50;;
8978;SDS011;4524;51.364;5.448;2023-01-06T06:39:11;2.97;;;1.80;;
8978;SDS011;4524;51.364;5.448;2023-01-06T06:41:39;2.33;;;1.60;;
8978;SDS011;4524;51.364;5.448;2023-01-06T06:44:06;2.27;;;1.67;;
8978;SDS011;4524;51.364;5.448;2023-01-06T06:46:34;1.53;;;1.40;;
8978;SDS011;4524;51.364;5.448;2023-01-06T06:49:02;2.00;;;1.80;;
8978;SDS011;4524;51.364;5.448;2023-01-06T06:51:32;5.13;;;1.50;;
8978;SDS011;4524;51.364;5.448;2023-01-06T06:54:02;2.97;;;1.50;;
8978;SDS011;4524;51.364;5.448;2023-01-06T06:56:30;3.00;;;1.50;;
8978;SDS011;4524;51.364;5.448;2023-01-06T06:58:58;2.70;;;1.40;;
8978;SDS011;4524;51.364;5.448;2023-01-06T07:01:26;2.47;;;1.70;;
8978;SDS011;4524;51.364;5.448;2023-01-06T07:03:57;2.10;;;1.60;;
8978;SDS011;4524;51.364;5.448;2023-01-06T07:06:25;1.73;;;1.37;;
8978;SDS011;4524;51.364;5.448;2023-01-06T07:08:55;3.93;;;1.80;;
8978;SDS011;4524;51.364;5.448;2023-01-06T07:11:24;3.43;;;1.80;;
8978;SDS011;4524;51.364;5.448;2023-01-06T07:13:52;2.33;;;1.60;;
8978;SDS011;4524;51.364;5.448;2023-01-06T07:16:21;2.63;;;1.90;;
8978;SDS011;4524;51.364;5.448;2023-01-06T07:18:51;2.33;;;1.60;;
8978;SDS011;4524;51.364;5.448;2023-01-06T07:21:19;2.07;;;1.73;;
8978;SDS011;4524;51.364;5.448;2023-01-06T07:23:47;1.70;;;1.50;;
8978;SDS011;4524;51.364;5.448;2023-01-06T07:26:16;2.53;;;1.50;;
8978;SDS011;4524;51.364;5.448;2023-01-06T07:28:44;3.27;;;1.73;;
8978;SDS011;4524;51.364;5.448;2023-01-06T07:31:12;2.77;;;1.70;;
8978;SDS011;4524;51.364;5.448;2023-01-06T07:33:40;2.17;;;1.50;;
8978;SDS011;4524;51.364;5.448;2023-01-06T07:36:08;1.80;;;1.50;;
8978;SDS011;4524;51.364;5.448;2023-01-06T07:38:36;3.03;;;1.73;;
8978;SDS011;4524;51.364;5.448;2023-01-06T07:41:04;2.80;;;1.70;;
8978;SDS011;4524;51.364;5.448;2023-01-06T07:43:33;2.87;;;1.53;;
8978;SDS011;4524;51.364;5.448;2023-01-06T07:46:01;2.07;;;1.60;;
8978;SDS011;4524;51.364;5.448;2023-01-06T07:48:30;4.43;;;1.80;;
8978;SDS011;4524;51.364;5.448;2023-01-06T07:50:58;3.83;;;1.70;;
8978;SDS011;4524;51.364;5.448;2023-01-06T07:53:26;3.37;;;1.40;;
8978;SDS011;4524;51.364;5.448;2023-01-06T07:55:54;1.80;;;1.50;;
8978;SDS011;4524;51.364;5.448;2023-01-06T07:58:22;4.70;;;1.70;;
8978;SDS011;4524;51.364;5.448;2023-01-06T08:00:51;1.93;;;1.60;;
8978;SDS011;4524;51.364;5.448;2023-01-06T08:03:19;2.50;;;1.50;;
8978;SDS011;4524;51.364;5.448;2023-01-06T08:05:48;3.10;;;1.67;;
8978;SDS011;4524;51.364;5.448;2023-01-06T08:08:16;1.80;;;1.57;;
8978;SDS011;4524;51.364;5.448;2023-01-06T08:10:44;2.87;;;1.70;;
8978;SDS011;4524;51.364;5.448;2023-01-06T08:13:12;3.07;;;1.90;;
8978;SDS011;4524;51.364;5.448;2023-01-06T08:15:40;3.57;;;1.70;;
8978;SDS011;4524;51.364;5.448;2023-01-06T08:18:09;1.93;;;1.53;;
8978;SDS011;4524;51.364;5.448;2023-01-06T08:20:37;2.20;;;1.70;;
8978;SDS011;4524;51.364;5.448;2023-01-06T08:23:05;2.17;;;1.97;;
8978;SDS011;4524;51.364;5.448;2023-01-06T08:25:33;2.87;;;1.50;;
8978;SDS011;4524;51.364;5.448;2023-01-06T08:28:01;2.10;;;1.90;;
8978;SDS011;4524;51.364;5.448;2023-01-06T08:30:48;2.33;;;1.77;;
8978;SDS011;4524;51.364;5.448;2023-01-06T08:33:18;2.13;;;1.60;;
8978;SDS011;4524;51.364;5.448;2023-01-06T08:35:45;4.23;;;1.70;;
8978;SDS011;4524;51.364;5.448;2023-01-06T08:38:13;2.07;;;1.70;;
8978;SDS011;4524;51.364;5.448;2023-01-06T08:40:41;4.00;;;1.70;;
8978;SDS011;4524;51.364;5.448;2023-01-06T08:43:09;3.27;;;2.20;;
8978;SDS011;4524;51.364;5.448;2023-01-06T08:45:37;3.10;;;1.70;;
8978;SDS011;4524;51.364;5.448;2023-01-06T08:48:06;1.83;;;1.50;;
8978;SDS011;4524;51.364;5.448;2023-01-06T08:50:36;2.43;;;1.80;;
8978;SDS011;4524;51.364;5.448;2023-01-06T08:53:04;2.47;;;1.67;;
8978;SDS011;4524;51.364;5.448;2023-01-06T08:55:32;1.67;;;1.57;;
8978;SDS011;4524;51.364;5.448;2023-01-06T08:58:03;2.77;;;1.80;;
8978;SDS011;4524;51.364;5.448;2023-01-06T09:00:32;4.23;;;1.80;;
8978;SDS011;4524;51.364;5.448;2023-01-06T09:03:00;4.80;;;1.97;;
8978;SDS011;4524;51.364;5.448;2023-01-06T09:05:28;1.87;;;1.63;;
8978;SDS011;4524;51.364;5.448;2023-01-06T09:07:57;2.70;;;1.80;;
8978;SDS011;4524;51.364;5.448;2023-01-06T09:10:25;4.27;;;1.80;;
8978;SDS011;4524;51.364;5.448;2023-01-06T09:12:53;2.87;;;1.60;;
8978;SDS011;4524;51.364;5.448;2023-01-06T09:15:21;3.77;;;1.73;;
8978;SDS011;4524;51.364;5.448;2023-01-06T09:17:49;1.63;;;1.50;;
8978;SDS011;4524;51.364;5.448;2023-01-06T09:20:17;1.70;;;1.60;;
8978;SDS011;4524;51.364;5.448;2023-01-06T09:22:45;3.90;;;1.70;;
8978;SDS011;4524;51.364;5.448;2023-01-06T09:25:14;2.17;;;1.80;;
8978;SDS011;4524;51.364;5.448;2023-01-06T09:27:43;4.60;;;1.50;;
8978;SDS011;4524;51.364;5.448;2023-01-06T09:30:12;4.30;;;1.50;;
8978;SDS011;4524;51.364;5.448;2023-01-06T09:32:40;1.77;;;1.57;;
8978;SDS011;4524;51.364;5.448;2023-01-06T09:35:08;2.40;;;1.60;;
8978;SDS011;4524;51.364;5.448;2023-01-06T09:37:37;2.03;;;1.63;;
8978;SDS011;4524;51.364;5.448;2023-01-06T09:40:05;1.70;;;1.60;;
8978;SDS011;4524;51.364;5.448;2023-01-06T09:42:40;2.43;;;1.67;;
8978;SDS011;4524;51.364;5.448;2023-01-06T09:45:18;1.80;;;1.57;;
8978;SDS011;4524;51.364;5.448;2023-01-06T09:47:53;2.20;;;1.50;;
8978;SDS011;4524;51.364;5.448;2023-01-06T09:50:27;1.80;;;1.70;;
8978;SDS011;4524;51.364;5.448;2023-01-06T09:52:59;2.23;;;1.47;;
8978;SDS011;4524;51.364;5.448;2023-01-06T09:55:33;2.97;;;1.87;;
8978;SDS011;4524;51.364;5.448;2023-01-06T09:58:07;2.37;;;1.70;;
8978;SDS011;4524;51.364;5.448;2023-01-06T10:00:40;2.17;;;1.90;;
8978;SDS011;4524;51.364;5.448;2023-01-06T10:03:10;2.83;;;1.57;;
8978;SDS011;4524;51.364;5.448;2023-01-06T10:05:42;2.73;;;1.87;;
8978;SDS011;4524;51.364;5.448;2023-01-06T10:08:19;3.37;;;1.80;;
8978;SDS011;4524;51.364;5.448;2023-01-06T10:10:53;2.87;;;1.80;;
8978;SDS011;4524;51.364;5.448;2023-01-06T10:13:37;1.97;;;1.77;;
8978;SDS011;4524;51.364;5.448;2023-01-06T10:16:19;2.73;;;1.73;;
8978;SDS011;4524;51.364;5.448;2023-01-06T10:18:57;5.03;;;1.90;;
8978;SDS011;4524;51.364;5.448;2023-01-06T10:21:33;2.77;;;1.83;;
8978;SDS011;4524;51.364;5.448;2023-01-06T10:24:23;3.67;;;2.20;;
8978;SDS011;4524;51.364;5.448;2023-01-06T10:27:14;2.80;;;2.17;;
8978;SDS011;4524;51.364;5.448;2023-01-06T10:29:49;2.33;;;1.90;;
8978;SDS011;4524;51.364;5.448;2023-01-06T10:32:19;3.80;;;2.20;;
8978;SDS011;4524;51.364;5.448;2023-01-06T10:34:49;4.00;;;2.30;;
8978;SDS011;4524;51.364;5.448;2023-01-06T10:37:18;2.50;;;1.80;;
8978;SDS011;4524;51.364;5.448;2023-01-06T10:39:50;3.23;;;2.30;;
8978;SDS011;4524;51.364;5.448;2023-01-06T10:42:26;3.27;;;2.53;;
8978;SDS011;4524;51.364;5.448;2023-01-06T10:45:19;2.73;;;2.27;;
8978;SDS011;4524;51.364;5.448;2023-01-06T10:47:48;4.17;;;2.63;;
8978;SDS011;4524;51.364;5.448;2023-01-06T10:50:17;4.67;;;2.43;;
8978;SDS011;4524;51.364;5.448;2023-01-06T10:52:46;6.47;;;2.80;;
8978;SDS011;4524;51.364;5.448;2023-01-06T10:55:22;5.40;;;3.00;;
8978;SDS011;4524;51.364;5.448;2023-01-06T10:58:04;5.63;;;3.23;;
8978;SDS011;4524;51.364;5.448;2023-01-06T11:00:53;3.90;;;3.23;;
8978;SDS011;4524;51.364;5.448;2023-01-06T11:03:22;4.37;;;3.10;;
8978;SDS011;4524;51.364;5.448;2023-01-06T11:06:01;5.30;;;2.50;;
8978;SDS011;4524;51.364;5.448;2023-01-06T11:08:31;5.80;;;2.97;;
8978;SDS011;4524;51.364;5.448;2023-01-06T11:10:59;4.30;;;3.17;;
8978;SDS011;4524;51.364;5.448;2023-01-06T11:13:28;5.00;;;2.97;;
8978;SDS011;4524;51.364;5.448;2023-01-06T11:16:02;5.87;;;2.80;;
8978;SDS011;4524;51.364;5.448;2023-01-06T11:18:32;6.63;;;2.87;;
8978;SDS011;4524;51.364;5.448;2023-01-06T11:21:04;4.00;;;2.77;;
8978;SDS011;4524;51.364;5.448;2023-01-06T11:23:35;5.17;;;2.90;;
8978;SDS011;4524;51.364;5.448;2023-01-06T11:26:11;3.37;;;2.33;;
8978;SDS011;4524;51.364;5.448;2023-01-06T11:28:42;5.50;;;2.70;;
8978;SDS011;4524;51.364;5.448;2023-01-06T11:31:16;3.20;;;2.33;;
8978;SDS011;4524;51.364;5.448;2023-01-06T11:33:47;4.83;;;2.60;;
8978;SDS011;4524;51.364;5.448;2023-01-06T11:36:19;4.93;;;2.53;;
8978;SDS011;4524;51.364;5.448;2023-01-06T11:38:49;4.77;;;2.70;;
8978;SDS011;4524;51.364;5.448;2023-01-06T11:41:22;4.23;;;2.23;;
8978;SDS011;4524;51.364;5.448;2023-01-06T11:43:54;5.00;;;2.10;;
8978;SDS011;4524;51.364;5.448;2023-01-06T11:46:30;4.60;;;2.40;;
8978;SDS011;4524;51.364;5.448;2023-01-06T11:48:59;5.20;;;2.17;;
8978;SDS011;4524;51.364;5.448;2023-01-06T11:51:29;4.03;;;2.10;;
8978;SDS011;4524;51.364;5.448;2023-01-06T11:53:59;3.53;;;2.00;;
8978;SDS011;4524;51.364;5.448;2023-01-06T11:56:27;3.27;;;1.90;;
8978;SDS011;4524;51.364;5.448;2023-01-06T11:58:57;3.77;;;1.70;;
8978;SDS011;4524;51.364;5.448;2023-01-06T12:01:33;3.67;;;1.60;;
8978;SDS011;4524;51.364;5.448;2023-01-06T12:04:09;4.00;;;1.50;;
8978;SDS011;4524;51.364;5.448;2023-01-06T12:06:42;3.77;;;1.23;;
8978;SDS011;4524;51.364;5.448;2023-01-06T12:09:13;2.43;;;1.30;;
8978;SDS011;4524;51.364;5.448;2023-01-06T12:11:46;4.90;;;1.50;;
8978;SDS011;4524;51.364;5.448;2023-01-06T12:14:16;2.33;;;1.40;;
8978;SDS011;4524;51.364;5.448;2023-01-06T12:16:57;7.00;;;1.67;;
8978;SDS011;4524;51.364;5.448;2023-01-06T12:19:31;2.97;;;1.40;;
8978;SDS011;4524;51.364;5.448;2023-01-06T12:22:07;4.97;;;1.80;;
8978;SDS011;4524;51.364;5.448;2023-01-06T12:24:48;3.57;;;1.40;;
8978;SDS011;4524;51.364;5.448;2023-01-06T12:27:20;3.73;;;1.53;;
8978;SDS011;4524;51.364;5.448;2023-01-06T12:29:53;6.50;;;1.60;;
8978;SDS011;4524;51.364;5.448;2023-01-06T12:32:26;3.47;;;1.43;;
8978;SDS011;4524;51.364;5.448;2023-01-06T12:35:02;3.70;;;1.57;;
8978;SDS011;4524;51.364;5.448;2023-01-06T12:37:33;2.40;;;1.30;;
8978;SDS011;4524;51.364;5.448;2023-01-06T12:40:07;3.77;;;1.50;;
8978;SDS011;4524;51.364;5.448;2023-01-06T12:42:42;3.33;;;1.70;;
8978;SDS011;4524;51.364;5.448;2023-01-06T12:45:17;4.93;;;1.40;;
8978;SDS011;4524;51.364;5.448;2023-01-06T12:47:50;4.80;;;1.53;;
8978;SDS011;4524;51.364;5.448;2023-01-06T12:50:23;3.80;;;1.37;;
8978;SDS011;4524;51.364;5.448;2023-01-06T12:53:00;3.27;;;1.40;;
8978;SDS011;4524;51.364;5.448;2023-01-06T12:55:47;3.57;;;1.57;;
8978;SDS011;4524;51.364;5.448;2023-01-06T12:58:25;2.57;;;1.27;;
8978;SDS011;4524;51.364;5.448;2023-01-06T13:01:01;3.27;;;1.47;;
8978;SDS011;4524;51.364;5.448;2023-01-06T13:03:55;3.90;;;1.30;;
8978;SDS011;4524;51.364;5.448;2023-01-06T13:06:46;2.40;;;1.30;;
8978;SDS011;4524;51.364;5.448;2023-01-06T13:09:29;1.90;;;1.13;;
8978;SDS011;4524;51.364;5.448;2023-01-06T13:12:19;1.83;;;1.10;;
8978;SDS011;4524;51.364;5.448;2023-01-06T13:15:03;2.23;;;1.10;;
8978;SDS011;4524;51.364;5.448;2023-01-06T13:17:40;2.10;;;1.07;;
8978;SDS011;4524;51.364;5.448;2023-01-06T13:20:15;1.50;;;1.10;;
8978;SDS011;4524;51.364;5.448;2023-01-06T13:22:50;2.40;;;1.13;;
8978;SDS011;4524;51.364;5.448;2023-01-06T13:25:27;2.33;;;1.20;;
8978;SDS011;4524;51.364;5.448;2023-01-06T13:28:07;1.53;;;1.10;;
8978;SDS011;4524;51.364;5.448;2023-01-06T13:30:53;2.33;;;1.23;;
8978;SDS011;4524;51.364;5.448;2023-01-06T13:34:02;1.83;;;1.37;;
8978;SDS011;4524;51.364;5.448;2023-01-06T13:36:56;1.47;;;1.20;;
8978;SDS011;4524;51.364;5.448;2023-01-06T13:39:40;2.60;;;1.43;;
8978;SDS011;4524;51.364;5.448;2023-01-06T13:42:13;3.30;;;1.27;;
8978;SDS011;4524;51.364;5.448;2023-01-06T13:44:43;2.07;;;1.37;;
8978;SDS011;4524;51.364;5.448;2023-01-06T13:47:15;2.00;;;1.37;;
8978;SDS011;4524;51.364;5.448;2023-01-06T13:49:45;1.50;;;1.37;;
8978;SDS011;4524;51.364;5.448;2023-01-06T13:52:16;2.13;;;1.60;;
8978;SDS011;4524;51.364;5.448;2023-01-06T13:54:53;2.43;;;1.60;;
8978;SDS011;4524;51.364;5.448;2023-01-06T13:57:30;3.20;;;1.80;;
8978;SDS011;4524;51.364;5.448;2023-01-06T14:02:59;2.10;;;1.70;;
8978;SDS011;4524;51.364;5.448;2023-01-06T14:05:52;1.70;;;1.60;;
8978;SDS011;4524;51.364;5.448;2023-01-06T14:08:23;1.50;;;1.40;;
8978;SDS011;4524;51.364;5.448;2023-01-06T14:10:57;1.60;;;1.50;;
8978;SDS011;4524;51.364;5.448;2023-01-06T14:13:35;1.50;;;1.40;;
8978;SDS011;4524;51.364;5.448;2023-01-06T14:16:06;1.67;;;1.30;;
8978;SDS011;4524;51.364;5.448;2023-01-06T14:18:38;1.60;;;1.50;;
8978;SDS011;4524;51.364;5.448;2023-01-06T14:21:15;1.90;;;1.40;;
8978;SDS011;4524;51.364;5.448;2023-01-06T14:23:50;1.60;;;1.47;;
8978;SDS011;4524;51.364;5.448;2023-01-06T14:26:21;1.50;;;1.40;;
8978;SDS011;4524;51.364;5.448;2023-01-06T14:32:05;1.40;;;1.30;;
8978;SDS011;4524;51.364;5.448;2023-01-06T14:34:34;1.80;;;1.50;;
8978;SDS011;4524;51.364;5.448;2023-01-06T14:37:03;1.87;;;1.77;;
8978;SDS011;4524;51.364;5.448;2023-01-06T14:39:39;2.23;;;1.93;;
8978;SDS011;4524;51.364;5.448;2023-01-06T14:42:19;3.63;;;2.40;;
8978;SDS011;4524;51.364;5.448;2023-01-06T14:44:54;2.60;;;2.40;;
8978;SDS011;4524;51.364;5.448;2023-01-06T14:47:26;3.17;;;2.13;;
8978;SDS011;4524;51.364;5.448;2023-01-06T14:49:58;2.60;;;2.40;;
8978;SDS011;4524;51.364;5.448;2023-01-06T14:52:30;2.90;;;2.70;;
8978;SDS011;4524;51.364;5.448;2023-01-06T14:55:03;3.00;;;2.73;;
8978;SDS011;4524;51.364;5.448;2023-01-06T14:57:37;3.50;;;2.80;;
8978;SDS011;4524;51.364;5.448;2023-01-06T15:00:06;3.37;;;2.50;;
8978;SDS011;4524;51.364;5.448;2023-01-06T15:02:41;3.33;;;2.40;;
8978;SDS011;4524;51.364;5.448;2023-01-06T15:05:16;2.07;;;1.90;;
8978;SDS011;4524;51.364;5.448;2023-01-06T15:07:55;3.10;;;2.20;;
8978;SDS011;4524;51.364;5.448;2023-01-06T15:10:26;1.60;;;1.50;;
8978;SDS011;4524;51.364;5.448;2023-01-06T15:12:55;1.83;;;1.73;;
8978;SDS011;4524;51.364;5.448;2023-01-06T15:15:24;2.27;;;2.00;;
8978;SDS011;4524;51.364;5.448;2023-01-06T15:17:56;1.57;;;1.47;;
8978;SDS011;4524;51.364;5.448;2023-01-06T15:20:28;2.20;;;2.00;;
8978;SDS011;4524;51.364;5.448;2023-01-06T15:22:58;3.57;;;2.50;;
8978;SDS011;4524;51.364;5.448;2023-01-06T15:25:28;2.90;;;2.70;;
8978;SDS011;4524;51.364;5.448;2023-01-06T15:27:57;2.77;;;2.57;;
8978;SDS011;4524;51.364;5.448;2023-01-06T15:30:26;3.23;;;2.40;;
8978;SDS011;4524;51.364;5.448;2023-01-06T15:32:59;3.40;;;3.10;;
8978;SDS011;4524;51.364;5.448;2023-01-06T15:35:31;3.43;;;2.70;;
8978;SDS011;4524;51.364;5.448;2023-01-06T15:38:03;3.17;;;2.83;;
8978;SDS011;4524;51.364;5.448;2023-01-06T15:40:40;3.10;;;2.90;;
8978;SDS011;4524;51.364;5.448;2023-01-06T15:43:08;3.07;;;2.80;;
8978;SDS011;4524;51.364;5.448;2023-01-06T15:45:36;2.90;;;2.70;;
8978;SDS011;4524;51.364;5.448;2023-01-06T15:48:07;2.60;;;2.40;;
8978;SDS011;4524;51.364;5.448;2023-01-06T15:50:37;3.50;;;3.20;;
8978;SDS011;4524;51.364;5.448;2023-01-06T15:53:05;4.03;;;3.73;;
8978;SDS011;4524;51.364;5.448;2023-01-06T15:55:48;4.77;;;3.43;;